Terminal Aerodrome Forecast
Issued by NWS Knoxville/Tri Cities, TN

Current Version | Previous Version | Text Only | Print | Product List | Glossary On
Versions: 1 2 3 4 5 6 7 8 9 10 11 12
000
FTUS44 KMRX 260527
TAFTYS
TAF
KTYS 260527Z 2606/2706 23004KT P6SM SKC
     FM261500 24010KT P6SM SCT050 SCT100
     FM262100 24010KT P6SM VCTS BKN050CB
      TEMPO 2622/2701 3SM -TSRA OVC040CB
     FM270200 35007KT P6SM OVC025=

USA.gov is the U.S. government's official web portal to all federal, state and local government web resources and services.